sensor_id;sensor_type;location;lat;lon;timestamp;P1;durP1;ratioP1;P2;durP2;ratioP2
29576;SDS011;16509;53.862;10.672;2023-08-21T00:02:16;0.43;;;0.43;;
29576;SDS011;16509;53.862;10.672;2023-08-21T00:04:41;0.22;;;0.22;;
29576;SDS011;16509;53.862;10.672;2023-08-21T00:07:07;0.40;;;0.40;;
29576;SDS011;16509;53.862;10.672;2023-08-21T00:09:34;0.45;;;0.35;;
29576;SDS011;16509;53.862;10.672;2023-08-21T00:12:00;0.20;;;0.20;;
29576;SDS011;16509;53.862;10.672;2023-08-21T00:14:25;1.17;;;0.50;;
29576;SDS011;16509;53.862;10.672;2023-08-21T00:16:51;0.65;;;0.50;;
29576;SDS011;16509;53.862;10.672;2023-08-21T00:19:16;0.47;;;0.47;;
29576;SDS011;16509;53.862;10.672;2023-08-21T00:21:42;0.38;;;0.38;;
29576;SDS011;16509;53.862;10.672;2023-08-21T00:24:07;0.35;;;0.35;;
29576;SDS011;16509;53.862;10.672;2023-08-21T00:26:33;0.32;;;0.32;;
29576;SDS011;16509;53.862;10.672;2023-08-21T00:28:58;0.20;;;0.20;;
29576;SDS011;16509;53.862;10.672;2023-08-21T00:31:24;0.30;;;0.30;;
29576;SDS011;16509;53.862;10.672;2023-08-21T00:33:50;0.57;;;0.30;;
29576;SDS011;16509;53.862;10.672;2023-08-21T00:36:15;0.38;;;0.38;;
29576;SDS011;16509;53.862;10.672;2023-08-21T00:38:41;0.30;;;0.30;;
29576;SDS011;16509;53.862;10.672;2023-08-21T00:41:06;0.30;;;0.30;;
29576;SDS011;16509;53.862;10.672;2023-08-21T00:43:32;0.30;;;0.30;;
29576;SDS011;16509;53.862;10.672;2023-08-21T00:45:57;0.30;;;0.30;;
29576;SDS011;16509;53.862;10.672;2023-08-21T00:48:23;0.55;;;0.40;;
29576;SDS011;16509;53.862;10.672;2023-08-21T00:50:49;0.30;;;0.30;;
29576;SDS011;16509;53.862;10.672;2023-08-21T00:53:15;0.30;;;0.30;;
29576;SDS011;16509;53.862;10.672;2023-08-21T00:55:41;0.93;;;0.40;;
29576;SDS011;16509;53.862;10.672;2023-08-21T00:58:08;0.30;;;0.30;;
29576;SDS011;16509;53.862;10.672;2023-08-21T01:00:36;0.30;;;0.30;;
29576;SDS011;16509;53.862;10.672;2023-08-21T01:03:02;0.38;;;0.38;;
29576;SDS011;16509;53.862;10.672;2023-08-21T01:05:28;0.40;;;0.40;;
29576;SDS011;16509;53.862;10.672;2023-08-21T01:07:59;0.50;;;0.45;;
29576;SDS011;16509;53.862;10.672;2023-08-21T01:10:32;0.30;;;0.30;;
29576;SDS011;16509;53.862;10.672;2023-08-21T01:13:22;0.40;;;0.40;;
29576;SDS011;16509;53.862;10.672;2023-08-21T01:15:50;0.30;;;0.30;;
29576;SDS011;16509;53.862;10.672;2023-08-21T01:18:18;0.40;;;0.40;;
29576;SDS011;16509;53.862;10.672;2023-08-21T01:20:45;0.25;;;0.25;;
29576;SDS011;16509;53.862;10.672;2023-08-21T01:23:25;0.30;;;0.30;;
29576;SDS011;16509;53.862;10.672;2023-08-21T01:26:01;0.40;;;0.40;;
29576;SDS011;16509;53.862;10.672;2023-08-21T01:28:26;0.40;;;0.40;;
29576;SDS011;16509;53.862;10.672;2023-08-21T01:30:55;0.38;;;0.38;;
29576;SDS011;16509;53.862;10.672;2023-08-21T01:33:26;0.32;;;0.30;;
29576;SDS011;16509;53.862;10.672;2023-08-21T01:35:55;0.60;;;0.60;;
29576;SDS011;16509;53.862;10.672;2023-08-21T01:38:22;0.43;;;0.43;;
29576;SDS011;16509;53.862;10.672;2023-08-21T01:40:49;0.30;;;0.30;;
29576;SDS011;16509;53.862;10.672;2023-08-21T01:43:14;0.50;;;0.30;;
29576;SDS011;16509;53.862;10.672;2023-08-21T01:45:40;0.30;;;0.30;;
29576;SDS011;16509;53.862;10.672;2023-08-21T01:48:05;0.20;;;0.20;;
29576;SDS011;16509;53.862;10.672;2023-08-21T01:50:31;0.38;;;0.38;;
29576;SDS011;16509;53.862;10.672;2023-08-21T01:52:57;0.30;;;0.30;;
29576;SDS011;16509;53.862;10.672;2023-08-21T01:55:22;0.40;;;0.40;;
29576;SDS011;16509;53.862;10.672;2023-08-21T01:57:48;0.30;;;0.30;;
29576;SDS011;16509;53.862;10.672;2023-08-21T02:00:13;0.30;;;0.30;;
29576;SDS011;16509;53.862;10.672;2023-08-21T02:02:39;0.73;;;0.30;;
29576;SDS011;16509;53.862;10.672;2023-08-21T02:05:06;0.20;;;0.20;;
29576;SDS011;16509;53.862;10.672;2023-08-21T02:07:31;0.30;;;0.30;;
29576;SDS011;16509;53.862;10.672;2023-08-21T02:09:57;0.52;;;0.52;;
29576;SDS011;16509;53.862;10.672;2023-08-21T02:12:22;0.75;;;0.50;;
29576;SDS011;16509;53.862;10.672;2023-08-21T02:14:48;0.32;;;0.32;;
29576;SDS011;16509;53.862;10.672;2023-08-21T02:17:14;0.40;;;0.40;;
29576;SDS011;16509;53.862;10.672;2023-08-21T02:19:39;0.35;;;0.35;;
29576;SDS011;16509;53.862;10.672;2023-08-21T02:22:05;0.40;;;0.40;;
29576;SDS011;16509;53.862;10.672;2023-08-21T02:24:30;0.50;;;0.40;;
29576;SDS011;16509;53.862;10.672;2023-08-21T02:26:56;0.68;;;0.68;;
29576;SDS011;16509;53.862;10.672;2023-08-21T02:29:21;0.40;;;0.40;;
29576;SDS011;16509;53.862;10.672;2023-08-21T02:31:47;0.40;;;0.40;;
29576;SDS011;16509;53.862;10.672;2023-08-21T02:34:12;0.57;;;0.30;;
29576;SDS011;16509;53.862;10.672;2023-08-21T02:36:38;0.30;;;0.30;;
29576;SDS011;16509;53.862;10.672;2023-08-21T02:39:03;0.50;;;0.50;;
29576;SDS011;16509;53.862;10.672;2023-08-21T02:41:29;0.22;;;0.22;;
29576;SDS011;16509;53.862;10.672;2023-08-21T02:43:54;0.30;;;0.30;;
29576;SDS011;16509;53.862;10.672;2023-08-21T02:46:20;0.40;;;0.40;;
29576;SDS011;16509;53.862;10.672;2023-08-21T02:51:47;0.30;;;0.30;;
29576;SDS011;16509;53.862;10.672;2023-08-21T02:54:13;0.30;;;0.30;;
29576;SDS011;16509;53.862;10.672;2023-08-21T02:56:38;0.43;;;0.43;;
29576;SDS011;16509;53.862;10.672;2023-08-21T02:59:04;0.82;;;0.40;;
29576;SDS011;16509;53.862;10.672;2023-08-21T03:01:30;0.43;;;0.43;;
29576;SDS011;16509;53.862;10.672;2023-08-21T03:03:55;0.47;;;0.47;;
29576;SDS011;16509;53.862;10.672;2023-08-21T03:06:21;0.50;;;0.50;;
29576;SDS011;16509;53.862;10.672;2023-08-21T03:08:46;0.30;;;0.30;;
29576;SDS011;16509;53.862;10.672;2023-08-21T03:11:12;0.65;;;0.63;;
29576;SDS011;16509;53.862;10.672;2023-08-21T03:13:38;0.38;;;0.38;;
29576;SDS011;16509;53.862;10.672;2023-08-21T03:16:03;0.40;;;0.40;;
29576;SDS011;16509;53.862;10.672;2023-08-21T03:18:29;0.45;;;0.40;;
29576;SDS011;16509;53.862;10.672;2023-08-21T03:20:56;0.30;;;0.30;;
29576;SDS011;16509;53.862;10.672;2023-08-21T03:23:21;0.50;;;0.50;;
29576;SDS011;16509;53.862;10.672;2023-08-21T03:25:47;0.32;;;0.32;;
29576;SDS011;16509;53.862;10.672;2023-08-21T03:28:13;0.40;;;0.40;;
29576;SDS011;16509;53.862;10.672;2023-08-21T03:30:41;1.00;;;0.73;;
29576;SDS011;16509;53.862;10.672;2023-08-21T03:33:07;0.43;;;0.40;;
29576;SDS011;16509;53.862;10.672;2023-08-21T03:35:33;0.28;;;0.28;;
29576;SDS011;16509;53.862;10.672;2023-08-21T03:37:59;0.40;;;0.40;;
29576;SDS011;16509;53.862;10.672;2023-08-21T03:40:24;0.40;;;0.40;;
29576;SDS011;16509;53.862;10.672;2023-08-21T03:42:50;0.75;;;0.75;;
29576;SDS011;16509;53.862;10.672;2023-08-21T03:45:15;0.32;;;0.32;;
29576;SDS011;16509;53.862;10.672;2023-08-21T03:47:41;0.57;;;0.57;;
29576;SDS011;16509;53.862;10.672;2023-08-21T03:50:06;1.45;;;0.57;;
29576;SDS011;16509;53.862;10.672;2023-08-21T03:52:32;0.60;;;0.60;;
29576;SDS011;16509;53.862;10.672;2023-08-21T03:54:58;0.70;;;0.70;;
29576;SDS011;16509;53.862;10.672;2023-08-21T03:57:23;0.40;;;0.40;;
29576;SDS011;16509;53.862;10.672;2023-08-21T03:59:49;0.60;;;0.60;;
29576;SDS011;16509;53.862;10.672;2023-08-21T04:02:14;0.73;;;0.60;;
29576;SDS011;16509;53.862;10.672;2023-08-21T04:04:40;0.40;;;0.40;;
29576;SDS011;16509;53.862;10.672;2023-08-21T04:07:05;0.60;;;0.60;;
29576;SDS011;16509;53.862;10.672;2023-08-21T04:09:31;0.35;;;0.35;;
29576;SDS011;16509;53.862;10.672;2023-08-21T04:11:56;0.40;;;0.40;;
29576;SDS011;16509;53.862;10.672;2023-08-21T04:14:22;0.30;;;0.30;;
29576;SDS011;16509;53.862;10.672;2023-08-21T04:16:47;0.50;;;0.50;;
29576;SDS011;16509;53.862;10.672;2023-08-21T04:19:13;0.60;;;0.60;;
29576;SDS011;16509;53.862;10.672;2023-08-21T04:21:38;1.15;;;0.60;;
29576;SDS011;16509;53.862;10.672;2023-08-21T04:24:04;0.50;;;0.43;;
29576;SDS011;16509;53.862;10.672;2023-08-21T04:26:29;1.13;;;0.43;;
29576;SDS011;16509;53.862;10.672;2023-08-21T04:28:55;0.40;;;0.40;;
29576;SDS011;16509;53.862;10.672;2023-08-21T04:31:21;0.50;;;0.50;;
29576;SDS011;16509;53.862;10.672;2023-08-21T04:33:48;0.70;;;0.57;;
29576;SDS011;16509;53.862;10.672;2023-08-21T04:36:14;0.50;;;0.50;;
29576;SDS011;16509;53.862;10.672;2023-08-21T04:38:40;0.50;;;0.50;;
29576;SDS011;16509;53.862;10.672;2023-08-21T04:41:06;0.60;;;0.60;;
29576;SDS011;16509;53.862;10.672;2023-08-21T04:43:32;0.52;;;0.50;;
29576;SDS011;16509;53.862;10.672;2023-08-21T04:45:58;0.50;;;0.50;;
29576;SDS011;16509;53.862;10.672;2023-08-21T04:48:23;0.50;;;0.50;;
29576;SDS011;16509;53.862;10.672;2023-08-21T04:50:49;0.50;;;0.50;;
29576;SDS011;16509;53.862;10.672;2023-08-21T04:53:14;1.65;;;0.60;;
29576;SDS011;16509;53.862;10.672;2023-08-21T04:55:40;0.30;;;0.30;;
29576;SDS011;16509;53.862;10.672;2023-08-21T04:58:06;0.75;;;0.43;;
29576;SDS011;16509;53.862;10.672;2023-08-21T05:00:32;1.10;;;0.70;;
29576;SDS011;16509;53.862;10.672;2023-08-21T05:02:58;0.50;;;0.50;;
29576;SDS011;16509;53.862;10.672;2023-08-21T05:05:24;1.27;;;0.77;;
29576;SDS011;16509;53.862;10.672;2023-08-21T05:07:49;0.47;;;0.47;;
29576;SDS011;16509;53.862;10.672;2023-08-21T05:10:15;0.95;;;0.60;;
29576;SDS011;16509;53.862;10.672;2023-08-21T05:12:40;0.43;;;0.43;;
29576;SDS011;16509;53.862;10.672;2023-08-21T05:15:06;0.77;;;0.77;;
29576;SDS011;16509;53.862;10.672;2023-08-21T05:17:32;1.25;;;0.80;;
29576;SDS011;16509;53.862;10.672;2023-08-21T05:19:57;0.60;;;0.60;;
29576;SDS011;16509;53.862;10.672;2023-08-21T05:22:23;1.40;;;1.13;;
29576;SDS011;16509;53.862;10.672;2023-08-21T05:24:49;0.38;;;0.38;;
29576;SDS011;16509;53.862;10.672;2023-08-21T05:27:14;0.55;;;0.55;;
29576;SDS011;16509;53.862;10.672;2023-08-21T05:29:40;0.25;;;0.25;;
29576;SDS011;16509;53.862;10.672;2023-08-21T05:32:05;0.50;;;0.50;;
29576;SDS011;16509;53.862;10.672;2023-08-21T05:34:31;0.52;;;0.40;;
29576;SDS011;16509;53.862;10.672;2023-08-21T05:36:57;0.50;;;0.50;;
29576;SDS011;16509;53.862;10.672;2023-08-21T05:39:22;2.35;;;1.05;;
29576;SDS011;16509;53.862;10.672;2023-08-21T05:41:48;0.75;;;0.70;;
29576;SDS011;16509;53.862;10.672;2023-08-21T05:44:13;0.90;;;0.68;;
29576;SDS011;16509;53.862;10.672;2023-08-21T05:46:39;0.57;;;0.57;;
29576;SDS011;16509;53.862;10.672;2023-08-21T05:49:04;0.40;;;0.40;;
29576;SDS011;16509;53.862;10.672;2023-08-21T05:51:30;1.15;;;0.70;;
29576;SDS011;16509;53.862;10.672;2023-08-21T05:53:56;1.55;;;0.70;;
29576;SDS011;16509;53.862;10.672;2023-08-21T05:56:22;0.68;;;0.47;;
29576;SDS011;16509;53.862;10.672;2023-08-21T05:58:48;0.50;;;0.50;;
29576;SDS011;16509;53.862;10.672;2023-08-21T06:01:13;0.73;;;0.73;;
29576;SDS011;16509;53.862;10.672;2023-08-21T06:03:39;0.90;;;0.85;;
29576;SDS011;16509;53.862;10.672;2023-08-21T06:06:04;0.70;;;0.60;;
29576;SDS011;16509;53.862;10.672;2023-08-21T06:08:30;0.55;;;0.47;;
29576;SDS011;16509;53.862;10.672;2023-08-21T06:10:56;0.95;;;0.70;;
29576;SDS011;16509;53.862;10.672;2023-08-21T06:13:21;0.40;;;0.40;;
29576;SDS011;16509;53.862;10.672;2023-08-21T06:15:47;0.60;;;0.60;;
29576;SDS011;16509;53.862;10.672;2023-08-21T06:18:13;1.83;;;0.75;;
29576;SDS011;16509;53.862;10.672;2023-08-21T06:20:41;0.50;;;0.50;;
29576;SDS011;16509;53.862;10.672;2023-08-21T06:23:07;0.70;;;0.60;;
29576;SDS011;16509;53.862;10.672;2023-08-21T06:25:33;0.55;;;0.55;;
29576;SDS011;16509;53.862;10.672;2023-08-21T06:27:58;0.50;;;0.50;;
29576;SDS011;16509;53.862;10.672;2023-08-21T06:30:24;0.52;;;0.52;;
29576;SDS011;16509;53.862;10.672;2023-08-21T06:32:51;0.60;;;0.60;;
29576;SDS011;16509;53.862;10.672;2023-08-21T06:35:16;0.70;;;0.70;;
29576;SDS011;16509;53.862;10.672;2023-08-21T06:37:42;0.32;;;0.32;;
29576;SDS011;16509;53.862;10.672;2023-08-21T06:40:08;0.50;;;0.47;;
29576;SDS011;16509;53.862;10.672;2023-08-21T06:42:34;0.32;;;0.32;;
29576;SDS011;16509;53.862;10.672;2023-08-21T06:44:59;0.20;;;0.20;;
29576;SDS011;16509;53.862;10.672;2023-08-21T06:47:25;0.50;;;0.50;;
29576;SDS011;16509;53.862;10.672;2023-08-21T06:49:50;1.50;;;1.40;;
29576;SDS011;16509;53.862;10.672;2023-08-21T06:52:16;0.40;;;0.40;;
29576;SDS011;16509;53.862;10.672;2023-08-21T06:54:42;0.35;;;0.30;;
29576;SDS011;16509;53.862;10.672;2023-08-21T06:57:07;0.20;;;0.20;;
29576;SDS011;16509;53.862;10.672;2023-08-21T06:59:33;0.32;;;0.32;;
29576;SDS011;16509;53.862;10.672;2023-08-21T07:02:01;0.70;;;0.47;;
29576;SDS011;16509;53.862;10.672;2023-08-21T07:04:27;0.38;;;0.38;;
29576;SDS011;16509;53.862;10.672;2023-08-21T07:06:53;0.40;;;0.40;;
29576;SDS011;16509;53.862;10.672;2023-08-21T07:09:19;0.40;;;0.40;;
29576;SDS011;16509;53.862;10.672;2023-08-21T07:11:44;1.05;;;0.32;;
29576;SDS011;16509;53.862;10.672;2023-08-21T07:14:10;0.38;;;0.38;;
29576;SDS011;16509;53.862;10.672;2023-08-21T07:16:38;1.10;;;0.60;;
29576;SDS011;16509;53.862;10.672;2023-08-21T07:19:04;0.40;;;0.30;;
29576;SDS011;16509;53.862;10.672;2023-08-21T07:21:29;0.95;;;0.50;;
29576;SDS011;16509;53.862;10.672;2023-08-21T07:23:55;0.40;;;0.40;;
29576;SDS011;16509;53.862;10.672;2023-08-21T07:26:20;0.30;;;0.30;;
29576;SDS011;16509;53.862;10.672;2023-08-21T07:28:46;0.60;;;0.47;;
29576;SDS011;16509;53.862;10.672;2023-08-21T07:31:12;0.35;;;0.35;;
29576;SDS011;16509;53.862;10.672;2023-08-21T07:33:38;0.40;;;0.40;;
29576;SDS011;16509;53.862;10.672;2023-08-21T07:36:04;0.40;;;0.40;;
29576;SDS011;16509;53.862;10.672;2023-08-21T07:38:30;0.30;;;0.30;;
29576;SDS011;16509;53.862;10.672;2023-08-21T07:41:06;0.25;;;0.25;;
29576;SDS011;16509;53.862;10.672;2023-08-21T07:43:35;0.40;;;0.32;;
29576;SDS011;16509;53.862;10.672;2023-08-21T07:46:07;0.50;;;0.30;;
29576;SDS011;16509;53.862;10.672;2023-08-21T07:48:37;0.75;;;0.30;;
29576;SDS011;16509;53.862;10.672;2023-08-21T07:51:03;0.30;;;0.30;;
29576;SDS011;16509;53.862;10.672;2023-08-21T07:53:28;0.30;;;0.30;;
29576;SDS011;16509;53.862;10.672;2023-08-21T07:55:56;0.45;;;0.32;;
29576;SDS011;16509;53.862;10.672;2023-08-21T07:58:22;0.20;;;0.20;;
29576;SDS011;16509;53.862;10.672;2023-08-21T08:00:48;0.20;;;0.20;;
29576;SDS011;16509;53.862;10.672;2023-08-21T08:03:13;0.20;;;0.20;;
29576;SDS011;16509;53.862;10.672;2023-08-21T08:05:39;0.20;;;0.20;;
29576;SDS011;16509;53.862;10.672;2023-08-21T08:08:06;0.28;;;0.28;;
29576;SDS011;16509;53.862;10.672;2023-08-21T08:10:32;0.10;;;0.10;;
29576;SDS011;16509;53.862;10.672;2023-08-21T08:12:58;0.20;;;0.20;;
29576;SDS011;16509;53.862;10.672;2023-08-21T08:15:23;0.75;;;0.30;;
29576;SDS011;16509;53.862;10.672;2023-08-21T08:17:49;0.40;;;0.40;;
29576;SDS011;16509;53.862;10.672;2023-08-21T08:20:18;0.20;;;0.20;;
29576;SDS011;16509;53.862;10.672;2023-08-21T08:22:44;0.22;;;0.20;;
29576;SDS011;16509;53.862;10.672;2023-08-21T08:25:10;0.10;;;0.10;;
29576;SDS011;16509;53.862;10.672;2023-08-21T08:27:36;0.20;;;0.20;;
29576;SDS011;16509;53.862;10.672;2023-08-21T08:30:02;0.20;;;0.20;;
29576;SDS011;16509;53.862;10.672;2023-08-21T08:32:28;0.20;;;0.20;;
29576;SDS011;16509;53.862;10.672;2023-08-21T08:34:54;0.60;;;0.60;;
29576;SDS011;16509;53.862;10.672;2023-08-21T08:37:20;0.17;;;0.15;;
29576;SDS011;16509;53.862;10.672;2023-08-21T08:39:46;0.57;;;0.20;;
29576;SDS011;16509;53.862;10.672;2023-08-21T08:42:12;0.28;;;0.20;;
29576;SDS011;16509;53.862;10.672;2023-08-21T08:44:39;0.10;;;0.10;;
29576;SDS011;16509;53.862;10.672;2023-08-21T08:47:06;0.10;;;0.10;;
29576;SDS011;16509;53.862;10.672;2023-08-21T08:49:33;0.55;;;0.30;;
29576;SDS011;16509;53.862;10.672;2023-08-21T08:51:59;0.22;;;0.22;;
29576;SDS011;16509;53.862;10.672;2023-08-21T08:54:25;0.10;;;0.10;;
29576;SDS011;16509;53.862;10.672;2023-08-21T08:56:52;0.20;;;0.20;;
29576;SDS011;16509;53.862;10.672;2023-08-21T08:59:18;0.10;;;0.10;;
29576;SDS011;16509;53.862;10.672;2023-08-21T09:01:44;0.47;;;0.20;;
29576;SDS011;16509;53.862;10.672;2023-08-21T09:04:10;0.20;;;0.20;;
29576;SDS011;16509;53.862;10.672;2023-08-21T09:06:36;0.25;;;0.25;;
29576;SDS011;16509;53.862;10.672;2023-08-21T09:09:02;0.10;;;0.10;;
29576;SDS011;16509;53.862;10.672;2023-08-21T09:11:27;0.20;;;0.20;;
29576;SDS011;16509;53.862;10.672;2023-08-21T09:13:53;0.20;;;0.20;;
29576;SDS011;16509;53.862;10.672;2023-08-21T09:16:20;0.10;;;0.10;;
29576;SDS011;16509;53.862;10.672;2023-08-21T09:18:47;0.10;;;0.10;;
29576;SDS011;16509;53.862;10.672;2023-08-21T09:21:15;0.10;;;0.10;;
29576;SDS011;16509;53.862;10.672;2023-08-21T09:23:42;0.10;;;0.10;;
29576;SDS011;16509;53.862;10.672;2023-08-21T09:26:07;0.55;;;0.10;;
29576;SDS011;16509;53.862;10.672;2023-08-21T09:28:33;1.33;;;1.23;;
29576;SDS011;16509;53.862;10.672;2023-08-21T09:30:59;0.28;;;0.20;;
29576;SDS011;16509;53.862;10.672;2023-08-21T09:33:27;0.10;;;0.10;;
29576;SDS011;16509;53.862;10.672;2023-08-21T09:35:53;0.70;;;0.20;;
29576;SDS011;16509;53.862;10.672;2023-08-21T09:38:19;0.03;;;0.03;;
29576;SDS011;16509;53.862;10.672;2023-08-21T09:40:54;0.20;;;0.20;;
29576;SDS011;16509;53.862;10.672;2023-08-21T09:43:21;0.10;;;0.10;;
29576;SDS011;16509;53.862;10.672;2023-08-21T09:45:48;0.30;;;0.30;;
29576;SDS011;16509;53.862;10.672;2023-08-21T09:48:21;0.05;;;0.05;;
29576;SDS011;16509;53.862;10.672;2023-08-21T09:50:48;0.10;;;0.10;;
29576;SDS011;16509;53.862;10.672;2023-08-21T09:53:16;0.20;;;0.20;;
29576;SDS011;16509;53.862;10.672;2023-08-21T09:55:41;0.10;;;0.10;;
29576;SDS011;16509;53.862;10.672;2023-08-21T09:58:07;3.15;;;0.52;;
29576;SDS011;16509;53.862;10.672;2023-08-21T10:00:34;0.35;;;0.13;;
29576;SDS011;16509;53.862;10.672;2023-08-21T10:03:04;0.10;;;0.10;;
29576;SDS011;16509;53.862;10.672;2023-08-21T10:05:32;0.00;;;0.00;;
29576;SDS011;16509;53.862;10.672;2023-08-21T10:08:00;0.10;;;0.10;;
29576;SDS011;16509;53.862;10.672;2023-08-21T10:10:33;0.10;;;0.10;;
29576;SDS011;16509;53.862;10.672;2023-08-21T10:13:00;0.00;;;0.00;;
29576;SDS011;16509;53.862;10.672;2023-08-21T10:15:27;0.10;;;0.10;;
29576;SDS011;16509;53.862;10.672;2023-08-21T10:17:54;0.10;;;0.10;;
29576;SDS011;16509;53.862;10.672;2023-08-21T10:20:25;0.20;;;0.20;;
29576;SDS011;16509;53.862;10.672;2023-08-21T10:22:54;0.20;;;0.20;;
29576;SDS011;16509;53.862;10.672;2023-08-21T10:25:26;0.20;;;0.20;;
29576;SDS011;16509;53.862;10.672;2023-08-21T10:27:52;0.20;;;0.20;;
29576;SDS011;16509;53.862;10.672;2023-08-21T10:30:20;0.10;;;0.10;;
29576;SDS011;16509;53.862;10.672;2023-08-21T10:32:49;0.55;;;0.55;;
29576;SDS011;16509;53.862;10.672;2023-08-21T10:35:17;0.08;;;0.08;;
29576;SDS011;16509;53.862;10.672;2023-08-21T10:38:06;0.00;;;0.00;;
29576;SDS011;16509;53.862;10.672;2023-08-21T10:40:36;0.20;;;0.20;;
29576;SDS011;16509;53.862;10.672;2023-08-21T10:43:02;0.10;;;0.10;;
29576;SDS011;16509;53.862;10.672;2023-08-21T10:45:29;0.10;;;0.10;;
29576;SDS011;16509;53.862;10.672;2023-08-21T10:47:56;0.05;;;0.05;;
29576;SDS011;16509;53.862;10.672;2023-08-21T10:50:23;0.63;;;0.13;;
29576;SDS011;16509;53.862;10.672;2023-08-21T10:52:49;0.10;;;0.10;;
29576;SDS011;16509;53.862;10.672;2023-08-21T10:55:17;0.00;;;0.00;;
29576;SDS011;16509;53.862;10.672;2023-08-21T10:57:46;0.10;;;0.10;;
29576;SDS011;16509;53.862;10.672;2023-08-21T11:00:13;0.00;;;0.00;;
29576;SDS011;16509;53.862;10.672;2023-08-21T11:02:46;0.15;;;0.10;;
29576;SDS011;16509;53.862;10.672;2023-08-21T11:05:14;0.40;;;0.10;;
29576;SDS011;16509;53.862;10.672;2023-08-21T11:07:44;0.38;;;0.38;;
29576;SDS011;16509;53.862;10.672;2023-08-21T11:10:15;0.10;;;0.10;;
29576;SDS011;16509;53.862;10.672;2023-08-21T11:12:55;0.90;;;0.10;;
29576;SDS011;16509;53.862;10.672;2023-08-21T11:15:22;0.10;;;0.10;;
29576;SDS011;16509;53.862;10.672;2023-08-21T11:17:56;0.10;;;0.10;;
29576;SDS011;16509;53.862;10.672;2023-08-21T11:20:30;0.63;;;0.10;;
29576;SDS011;16509;53.862;10.672;2023-08-21T11:23:00;0.10;;;0.10;;
29576;SDS011;16509;53.862;10.672;2023-08-21T11:25:33;0.22;;;0.20;;
29576;SDS011;16509;53.862;10.672;2023-08-21T11:28:00;0.17;;;0.17;;
29576;SDS011;16509;53.862;10.672;2023-08-21T11:30:27;0.43;;;0.10;;
29576;SDS011;16509;53.862;10.672;2023-08-21T11:33:06;0.10;;;0.10;;
29576;SDS011;16509;53.862;10.672;2023-08-21T11:35:37;0.10;;;0.10;;
29576;SDS011;16509;53.862;10.672;2023-08-21T11:38:03;0.10;;;0.10;;
29576;SDS011;16509;53.862;10.672;2023-08-21T11:40:29;0.10;;;0.10;;
29576;SDS011;16509;53.862;10.672;2023-08-21T11:43:02;0.08;;;0.08;;
29576;SDS011;16509;53.862;10.672;2023-08-21T11:45:28;0.10;;;0.10;;
29576;SDS011;16509;53.862;10.672;2023-08-21T11:47:55;0.05;;;0.05;;
29576;SDS011;16509;53.862;10.672;2023-08-21T11:50:21;0.10;;;0.10;;
29576;SDS011;16509;53.862;10.672;2023-08-21T11:52:47;0.03;;;0.03;;
29576;SDS011;16509;53.862;10.672;2023-08-21T11:55:17;0.00;;;0.00;;
29576;SDS011;16509;53.862;10.672;2023-08-21T11:57:49;0.10;;;0.10;;
29576;SDS011;16509;53.862;10.672;2023-08-21T12:00:19;0.20;;;0.20;;
29576;SDS011;16509;53.862;10.672;2023-08-21T12:02:57;0.03;;;0.03;;
29576;SDS011;16509;53.862;10.672;2023-08-21T12:05:24;0.00;;;0.00;;
29576;SDS011;16509;53.862;10.672;2023-08-21T12:07:52;0.00;;;0.00;;
29576;SDS011;16509;53.862;10.672;2023-08-21T12:10:29;0.00;;;0.00;;
29576;SDS011;16509;53.862;10.672;2023-08-21T12:12:55;0.00;;;0.00;;
29576;SDS011;16509;53.862;10.672;2023-08-21T12:15:21;0.40;;;0.10;;
29576;SDS011;16509;53.862;10.672;2023-08-21T12:17:47;0.00;;;0.00;;
29576;SDS011;16509;53.862;10.672;2023-08-21T12:20:12;0.10;;;0.10;;
29576;SDS011;16509;53.862;10.672;2023-08-21T12:22:39;0.10;;;0.00;;
29576;SDS011;16509;53.862;10.672;2023-08-21T12:25:05;0.00;;;0.00;;
29576;SDS011;16509;53.862;10.672;2023-08-21T12:27:31;0.25;;;0.08;;
29576;SDS011;16509;53.862;10.672;2023-08-21T12:29:56;0.00;;;0.00;;
29576;SDS011;16509;53.862;10.672;2023-08-21T12:32:22;0.15;;;0.15;;
29576;SDS011;16509;53.862;10.672;2023-08-21T12:34:48;0.00;;;0.00;;
29576;SDS011;16509;53.862;10.672;2023-08-21T12:37:13;0.00;;;0.00;;
29576;SDS011;16509;53.862;10.672;2023-08-21T12:39:39;0.08;;;0.08;;
29576;SDS011;16509;53.862;10.672;2023-08-21T12:42:04;0.05;;;0.00;;
29576;SDS011;16509;53.862;10.672;2023-08-21T12:44:30;0.00;;;0.00;;
29576;SDS011;16509;53.862;10.672;2023-08-21T12:46:56;0.05;;;0.00;;
29576;SDS011;16509;53.862;10.672;2023-08-21T12:49:22;0.00;;;0.00;;
29576;SDS011;16509;53.862;10.672;2023-08-21T12:51:47;0.00;;;0.00;;
29576;SDS011;16509;53.862;10.672;2023-08-21T12:54:13;0.00;;;0.00;;
29576;SDS011;16509;53.862;10.672;2023-08-21T12:56:38;0.32;;;0.20;;
29576;SDS011;16509;53.862;10.672;2023-08-21T12:59:04;0.10;;;0.10;;
29576;SDS011;16509;53.862;10.672;2023-08-21T13:01:30;0.00;;;0.00;;
29576;SDS011;16509;53.862;10.672;2023-08-21T13:03:56;0.00;;;0.00;;
29576;SDS011;16509;53.862;10.672;2023-08-21T13:06:22;0.08;;;0.08;;
29576;SDS011;16509;53.862;10.672;2023-08-21T13:08:47;0.00;;;0.00;;
29576;SDS011;16509;53.862;10.672;2023-08-21T13:11:13;0.00;;;0.00;;
29576;SDS011;16509;53.862;10.672;2023-08-21T13:13:39;0.10;;;0.10;;
29576;SDS011;16509;53.862;10.672;2023-08-21T13:16:04;0.00;;;0.00;;
29576;SDS011;16509;53.862;10.672;2023-08-21T13:18:30;0.00;;;0.00;;
29576;SDS011;16509;53.862;10.672;2023-08-21T13:20:55;0.47;;;0.10;;
29576;SDS011;16509;53.862;10.672;2023-08-21T13:23:21;0.00;;;0.00;;
29576;SDS011;16509;53.862;10.672;2023-08-21T13:25:47;0.00;;;0.00;;
29576;SDS011;16509;53.862;10.672;2023-08-21T13:28:13;0.00;;;0.00;;
29576;SDS011;16509;53.862;10.672;2023-08-21T13:30:38;0.00;;;0.00;;
29576;SDS011;16509;53.862;10.672;2023-08-21T13:33:04;0.00;;;0.00;;
29576;SDS011;16509;53.862;10.672;2023-08-21T13:35:30;0.00;;;0.00;;
29576;SDS011;16509;53.862;10.672;2023-08-21T13:37:56;0.00;;;0.00;;
29576;SDS011;16509;53.862;10.672;2023-08-21T13:40:23;0.00;;;0.00;;
29576;SDS011;16509;53.862;10.672;2023-08-21T13:42:49;0.00;;;0.00;;
29576;SDS011;16509;53.862;10.672;2023-08-21T13:45:15;0.00;;;0.00;;
29576;SDS011;16509;53.862;10.672;2023-08-21T13:47:44;0.00;;;0.00;;
29576;SDS011;16509;53.862;10.672;2023-08-21T13:50:14;0.00;;;0.00;;
29576;SDS011;16509;53.862;10.672;2023-08-21T13:52:41;0.00;;;0.00;;
29576;SDS011;16509;53.862;10.672;2023-08-21T13:55:08;0.00;;;0.00;;
29576;SDS011;16509;53.862;10.672;2023-08-21T13:57:35;0.10;;;0.10;;
29576;SDS011;16509;53.862;10.672;2023-08-21T14:00:02;0.00;;;0.00;;
29576;SDS011;16509;53.862;10.672;2023-08-21T14:02:33;0.00;;;0.00;;
29576;SDS011;16509;53.862;10.672;2023-08-21T14:05:02;0.10;;;0.10;;
29576;SDS011;16509;53.862;10.672;2023-08-21T14:07:29;0.00;;;0.00;;
29576;SDS011;16509;53.862;10.672;2023-08-21T14:09:58;0.05;;;0.05;;
29576;SDS011;16509;53.862;10.672;2023-08-21T14:12:24;0.10;;;0.10;;
29576;SDS011;16509;53.862;10.672;2023-08-21T14:14:50;0.10;;;0.10;;
29576;SDS011;16509;53.862;10.672;2023-08-21T14:17:15;0.10;;;0.10;;
29576;SDS011;16509;53.862;10.672;2023-08-21T14:19:41;0.05;;;0.05;;
29576;SDS011;16509;53.862;10.672;2023-08-21T14:22:07;0.00;;;0.00;;
29576;SDS011;16509;53.862;10.672;2023-08-21T14:24:32;0.10;;;0.10;;
29576;SDS011;16509;53.862;10.672;2023-08-21T14:26:58;0.10;;;0.10;;
29576;SDS011;16509;53.862;10.672;2023-08-21T14:29:24;0.10;;;0.10;;
29576;SDS011;16509;53.862;10.672;2023-08-21T14:31:49;0.20;;;0.20;;
29576;SDS011;16509;53.862;10.672;2023-08-21T14:34:18;0.00;;;0.00;;